createdAt,value
2023-03-11T00:00:33.084Z,11.56
2023-03-11T00:02:04.838Z,11.55
2023-03-11T00:03:36.471Z,11.55
2023-03-11T00:05:08.682Z,11.54
2023-03-11T00:06:40.308Z,11.50
2023-03-11T00:08:13.218Z,11.47
2023-03-11T00:09:45.126Z,11.51
2023-03-11T00:11:16.658Z,11.50
2023-03-11T00:12:48.178Z,11.48
2023-03-11T00:14:20.064Z,11.46
2023-03-11T00:15:52.170Z,11.46
2023-03-11T00:17:23.728Z,11.45
2023-03-11T00:18:56.100Z,11.41
2023-03-11T00:20:28.541Z,11.42
2023-03-11T00:22:00.150Z,11.38
2023-03-11T00:23:32.816Z,11.35
2023-03-11T00:25:04.582Z,11.30
2023-03-11T00:26:36.119Z,11.27
2023-03-11T00:28:07.738Z,11.28
2023-03-11T00:29:39.457Z,11.32
2023-03-11T00:31:12.374Z,11.35
2023-03-11T00:32:44.613Z,11.32
2023-03-11T00:34:16.506Z,11.31
2023-03-11T00:35:48.663Z,11.29
2023-03-11T00:37:21.226Z,11.28
2023-03-11T00:38:54.246Z,11.32
2023-03-11T00:40:27.540Z,11.32
2023-03-11T00:41:59.281Z,11.33
2023-03-11T00:43:31.046Z,11.22
2023-03-11T00:45:02.667Z,11.17
2023-03-11T00:46:34.349Z,11.15
2023-03-11T00:48:06.055Z,11.16
2023-03-11T00:49:37.781Z,11.16
2023-03-11T00:51:11.801Z,11.09
2023-03-11T00:52:44.170Z,11.04
2023-03-11T00:54:15.708Z,10.95
2023-03-11T00:55:47.596Z,10.88
2023-03-11T00:57:19.183Z,10.80
2023-03-11T00:58:50.843Z,10.72
2023-03-11T01:00:22.801Z,10.65
2023-03-11T01:01:54.311Z,10.65
2023-03-11T01:03:25.850Z,10.59
2023-03-11T01:04:57.403Z,10.59
2023-03-11T01:06:39.196Z,10.62
2023-03-11T01:08:16.959Z,10.63
2023-03-11T01:09:48.793Z,10.61
2023-03-11T01:11:20.315Z,10.62
2023-03-11T01:12:51.804Z,10.60
2023-03-11T01:14:23.412Z,10.54
2023-03-11T01:15:55.814Z,10.57
2023-03-11T01:17:27.931Z,10.51
2023-03-11T01:18:59.449Z,10.48
2023-03-11T01:20:31.122Z,10.51
2023-03-11T01:22:02.687Z,10.50
2023-03-11T01:23:34.670Z,10.48
2023-03-11T01:25:06.284Z,10.49
2023-03-11T01:26:38.154Z,10.49
2023-03-11T01:28:09.724Z,10.50
2023-03-11T01:29:41.478Z,10.48
2023-03-11T01:31:13.082Z,10.48
2023-03-11T01:32:44.868Z,10.54
2023-03-11T01:34:16.541Z,10.58
2023-03-11T01:35:49.403Z,10.58
2023-03-11T01:37:21.219Z,10.63
2023-03-11T01:38:52.707Z,10.69
2023-03-11T01:40:24.614Z,10.73
2023-03-11T01:41:56.367Z,10.77
2023-03-11T01:43:36.946Z,10.79
2023-03-11T01:45:27.483Z,10.79
2023-03-11T01:47:02.297Z,10.85
2023-03-11T01:48:33.867Z,10.93
2023-03-11T01:50:06.567Z,11.01
2023-03-11T01:51:41.874Z,11.09
2023-03-11T01:53:13.417Z,11.14
2023-03-11T01:54:45.067Z,11.14
2023-03-11T01:56:17.462Z,11.16
2023-03-11T01:57:49.000Z,11.19
2023-03-11T01:59:21.814Z,11.20
2023-03-11T02:00:53.404Z,11.22
2023-03-11T02:02:32.709Z,11.26
2023-03-11T02:04:04.320Z,11.28
2023-03-11T02:05:36.590Z,11.29
2023-03-11T02:07:08.637Z,11.29
2023-03-11T02:08:40.944Z,11.25
2023-03-11T02:10:13.657Z,11.22
2023-03-11T02:11:45.243Z,11.14
2023-03-11T02:13:16.785Z,11.14
2023-03-11T02:14:49.245Z,11.15
2023-03-11T02:16:20.816Z,11.12
2023-03-11T02:17:52.860Z,11.11
2023-03-11T02:19:27.073Z,11.10
2023-03-11T02:21:01.342Z,11.08
2023-03-11T02:22:35.857Z,11.08
2023-03-11T02:24:10.340Z,11.02
2023-03-11T02:25:44.415Z,10.96
2023-03-11T02:27:17.037Z,10.95
2023-03-11T02:28:49.077Z,10.97
2023-03-11T02:30:21.046Z,10.98
2023-03-11T02:31:53.085Z,10.98
2023-03-11T02:33:25.350Z,10.96
2023-03-11T02:34:56.934Z,10.96
2023-03-11T02:36:54.599Z,10.97
2023-03-11T02:38:26.669Z,10.98
2023-03-11T02:40:18.120Z,10.98
2023-03-11T02:41:49.858Z,11.02
2023-03-11T02:43:26.339Z,11.05
2023-03-11T02:44:59.743Z,11.06
2023-03-11T02:46:31.448Z,11.08
2023-03-11T02:48:03.054Z,11.09
2023-03-11T02:49:34.599Z,11.13
2023-03-11T02:51:06.217Z,11.08
2023-03-11T02:52:37.847Z,11.02
2023-03-11T02:54:09.642Z,10.98
2023-03-11T02:55:41.939Z,10.97
2023-03-11T02:57:13.988Z,10.98
2023-03-11T02:58:45.604Z,11.00
2023-03-11T03:00:17.780Z,11.01
2023-03-11T03:01:49.413Z,11.02
2023-03-11T03:03:20.926Z,11.04
2023-03-11T03:04:52.486Z,11.08
2023-03-11T03:06:25.099Z,11.09
2023-03-11T03:07:56.765Z,11.07
2023-03-11T03:09:28.270Z,11.05
2023-03-11T03:11:00.061Z,11.03
2023-03-11T03:12:31.639Z,11.01
2023-03-11T03:14:04.980Z,11.01
2023-03-11T03:15:36.534Z,11.04
2023-03-11T03:17:08.326Z,11.06
2023-03-11T03:18:39.914Z,11.03
2023-03-11T03:20:12.670Z,11.03
2023-03-11T03:21:44.189Z,11.06
2023-03-11T03:23:16.219Z,11.10
2023-03-11T03:24:47.905Z,11.10
2023-03-11T03:26:19.953Z,11.06
2023-03-11T03:27:51.409Z,11.02
2023-03-11T03:29:23.817Z,10.98
2023-03-11T03:30:55.708Z,10.92
2023-03-11T03:32:27.311Z,10.86
2023-03-11T03:33:58.808Z,10.88
2023-03-11T03:35:30.970Z,10.92
2023-03-11T03:37:02.624Z,10.93
2023-03-11T03:38:34.250Z,10.97
2023-03-11T03:40:08.049Z,11.00
2023-03-11T03:41:39.600Z,11.00
2023-03-11T03:43:15.560Z,10.98
2023-03-11T03:44:52.831Z,11.02
2023-03-11T03:46:30.084Z,11.03
2023-03-11T03:48:07.470Z,11.04
2023-03-11T03:49:39.567Z,11.01
2023-03-11T03:51:12.214Z,10.97
2023-03-11T03:52:43.759Z,10.96
2023-03-11T03:54:15.538Z,10.99
2023-03-11T03:55:47.116Z,10.99
2023-03-11T03:57:18.782Z,11.01
2023-03-11T03:58:50.371Z,11.05
2023-03-11T04:00:22.003Z,11.09
2023-03-11T04:01:53.586Z,11.12
2023-03-11T04:03:25.570Z,11.12
2023-03-11T04:04:57.404Z,11.11
2023-03-11T04:06:29.088Z,11.10
2023-03-11T04:08:00.884Z,11.11
2023-03-11T04:09:34.533Z,11.12
2023-03-11T04:11:07.872Z,11.13
2023-03-11T04:12:39.489Z,11.12
2023-03-11T04:14:11.035Z,11.14
2023-03-11T04:15:42.638Z,11.17
2023-03-11T04:17:14.713Z,11.17
2023-03-11T04:18:47.474Z,11.17
2023-03-11T04:20:19.284Z,11.13
2023-03-11T04:21:52.061Z,11.09
2023-03-11T04:23:23.674Z,11.09
2023-03-11T04:24:55.328Z,11.09
2023-03-11T04:26:26.951Z,11.05
2023-03-11T04:27:58.533Z,10.98
2023-03-11T04:29:36.556Z,10.90
2023-03-11T04:31:08.298Z,10.85
2023-03-11T04:32:39.836Z,10.86
2023-03-11T04:34:11.915Z,10.85
2023-03-11T04:35:43.668Z,10.83
2023-03-11T04:37:15.387Z,10.84
2023-03-11T04:38:46.964Z,10.79
2023-03-11T04:40:18.763Z,10.75
2023-03-11T04:41:50.522Z,10.73
2023-03-11T04:43:22.156Z,10.69
2023-03-11T04:44:54.579Z,10.67
2023-03-11T04:46:26.591Z,10.63
2023-03-11T04:47:58.164Z,10.63
2023-03-11T04:49:30.599Z,10.64
2023-03-11T04:51:02.057Z,10.71
2023-03-11T04:52:33.804Z,10.76
2023-03-11T04:54:05.563Z,10.79
2023-03-11T04:55:37.270Z,10.79
2023-03-11T04:57:08.800Z,10.79
2023-03-11T04:58:40.382Z,10.79
2023-03-11T05:00:12.245Z,10.80
2023-03-11T05:01:43.881Z,10.83
2023-03-11T05:03:15.560Z,10.82
2023-03-11T05:04:47.558Z,10.86
2023-03-11T05:06:19.270Z,10.85
2023-03-11T05:07:50.982Z,10.87
2023-03-11T05:09:22.561Z,10.88
2023-03-11T05:10:54.248Z,10.89
2023-03-11T05:12:25.906Z,10.90
2023-03-11T05:13:57.641Z,10.88
2023-03-11T05:15:31.333Z,10.83
2023-03-11T05:17:03.020Z,10.77
2023-03-11T05:18:34.799Z,10.68
2023-03-11T05:20:07.743Z,10.67
2023-03-11T05:21:39.410Z,10.59
2023-03-11T05:23:11.180Z,10.53
2023-03-11T05:24:43.292Z,10.50
2023-03-11T05:26:15.315Z,10.55
2023-03-11T05:27:47.118Z,10.52
2023-03-11T05:29:18.965Z,10.54
2023-03-11T05:30:51.004Z,10.54
2023-03-11T05:32:23.279Z,10.61
2023-03-11T05:33:55.529Z,10.63
2023-03-11T05:35:27.186Z,10.67
2023-03-11T05:37:00.435Z,10.66
2023-03-11T05:38:33.013Z,10.62
2023-03-11T05:40:07.517Z,10.61
2023-03-11T05:41:39.120Z,10.62
2023-03-11T05:43:10.809Z,10.62
2023-03-11T05:44:42.547Z,10.62
2023-03-11T05:46:14.278Z,10.64
2023-03-11T05:47:45.907Z,10.68
2023-03-11T05:49:17.485Z,10.68
2023-03-11T05:50:50.293Z,10.67
2023-03-11T05:52:21.915Z,10.68
2023-03-11T05:53:53.675Z,10.69
2023-03-11T05:55:25.336Z,10.71
2023-03-11T05:56:58.036Z,10.71
2023-03-11T05:58:30.341Z,10.63
2023-03-11T06:00:02.395Z,10.58
2023-03-11T06:01:34.471Z,10.53
2023-03-11T06:03:06.281Z,10.48
2023-03-11T06:04:38.361Z,10.50
2023-03-11T06:06:11.138Z,10.52
2023-03-11T06:07:42.834Z,10.60
2023-03-11T06:09:14.717Z,10.63
2023-03-11T06:10:48.857Z,10.65
2023-03-11T06:12:21.176Z,10.65
2023-03-11T06:13:54.945Z,10.61
2023-03-11T06:15:27.501Z,10.55
2023-03-11T06:16:59.951Z,10.47
2023-03-11T06:18:32.598Z,10.37
2023-03-11T06:20:06.330Z,10.32
2023-03-11T06:21:38.129Z,10.27
2023-03-11T06:23:10.704Z,10.21
2023-03-11T06:24:42.410Z,10.17
2023-03-11T06:26:14.533Z,10.19
2023-03-11T06:27:49.560Z,10.23
2023-03-11T06:29:24.534Z,10.31
2023-03-11T06:31:01.845Z,10.38
2023-03-11T06:32:35.264Z,10.44
2023-03-11T06:34:06.979Z,10.47
2023-03-11T06:35:38.680Z,10.52
2023-03-11T06:37:10.294Z,10.61
2023-03-11T06:38:41.869Z,10.66
2023-03-11T06:40:14.096Z,10.73
2023-03-11T06:41:45.694Z,10.76
2023-03-11T06:43:17.254Z,10.80
2023-03-11T06:44:48.873Z,10.80
2023-03-11T06:46:21.842Z,10.82
2023-03-11T06:47:53.416Z,10.83
2023-03-11T06:49:25.119Z,10.85
2023-03-11T06:51:00.421Z,10.88
2023-03-11T06:52:33.644Z,10.94
2023-03-11T06:54:08.722Z,10.97
2023-03-11T06:55:49.938Z,11.05
2023-03-11T06:57:21.854Z,11.10
2023-03-11T06:58:54.470Z,11.17
2023-03-11T07:00:26.115Z,11.21
2023-03-11T07:01:58.991Z,11.25
2023-03-11T07:03:30.593Z,11.26
2023-03-11T07:05:02.312Z,11.26
2023-03-11T07:06:34.467Z,11.25
2023-03-11T07:08:06.217Z,11.25
2023-03-11T07:09:37.892Z,11.25
2023-03-11T07:11:10.391Z,11.31
2023-03-11T07:12:42.127Z,11.37
2023-03-11T07:14:14.301Z,11.45
2023-03-11T07:15:45.942Z,11.50
2023-03-11T07:17:17.779Z,11.46
2023-03-11T07:18:49.653Z,11.47
2023-03-11T07:20:22.328Z,11.49
2023-03-11T07:21:54.086Z,11.54
2023-03-11T07:23:25.984Z,11.65
2023-03-11T07:25:02.271Z,11.71
2023-03-11T07:26:35.648Z,11.71
2023-03-11T07:28:07.396Z,11.76
2023-03-11T07:29:39.353Z,11.82
2023-03-11T07:31:11.893Z,11.90
2023-03-11T07:32:43.527Z,12.00
2023-03-11T07:34:15.352Z,12.12
2023-03-11T07:35:49.428Z,12.27
2023-03-11T07:37:21.167Z,12.42
2023-03-11T07:38:56.863Z,12.53
2023-03-11T07:40:28.606Z,12.71
2023-03-11T07:42:00.490Z,12.92
2023-03-11T07:43:32.722Z,13.12
2023-03-11T07:45:04.443Z,13.38
2023-03-11T07:46:37.285Z,13.54
2023-03-11T07:48:09.010Z,13.63
2023-03-11T07:49:41.064Z,13.66
2023-03-11T07:51:17.314Z,13.74
2023-03-11T07:53:04.957Z,13.89
2023-03-11T07:54:40.148Z,14.05
2023-03-11T07:56:15.915Z,14.14
2023-03-11T08:00:54.069Z,14.44
2023-03-11T08:01:51.713Z,14.51
2023-03-11T08:03:32.680Z,14.64
2023-03-11T08:05:07.989Z,14.86
2023-03-11T08:06:41.629Z,15.08
2023-03-11T08:08:14.245Z,15.22
2023-03-11T08:09:57.224Z,15.26
2023-03-11T08:11:29.163Z,15.27
2023-03-11T08:13:00.707Z,15.27
2023-03-11T08:14:32.274Z,15.39
2023-03-11T08:16:05.098Z,15.50
2023-03-11T08:17:36.876Z,15.63
2023-03-11T08:19:10.759Z,15.71
2023-03-11T08:20:42.682Z,15.79
2023-03-11T08:22:14.365Z,15.97
2023-03-11T08:23:49.118Z,16.11
2023-03-11T08:25:21.123Z,16.19
2023-03-11T08:26:53.120Z,16.30
2023-03-11T08:28:24.811Z,16.40
2023-03-11T08:29:56.724Z,16.49
2023-03-11T08:31:29.663Z,16.58
2023-03-11T08:33:01.265Z,16.70
2023-03-11T08:34:35.277Z,16.81
2023-03-11T08:36:07.257Z,17.00
2023-03-11T08:37:38.919Z,17.13
2023-03-11T08:39:10.797Z,17.22
2023-03-11T08:40:42.510Z,17.27
2023-03-11T08:42:14.778Z,17.28
2023-03-11T08:43:47.170Z,17.09
2023-03-11T08:45:19.186Z,16.84
2023-03-11T08:46:51.254Z,16.74
2023-03-11T08:48:25.713Z,16.75
2023-03-11T08:49:57.296Z,16.67
2023-03-11T08:51:29.602Z,16.70
2023-03-11T08:53:03.296Z,16.78
2023-03-11T08:54:35.223Z,16.85
2023-03-11T08:56:07.053Z,16.95
2023-03-11T08:57:38.798Z,17.06
2023-03-11T08:59:10.721Z,17.18
2023-03-11T09:00:43.284Z,17.25
2023-03-11T09:02:15.257Z,17.27
2023-03-11T09:03:47.128Z,17.28
2023-03-11T09:05:19.220Z,17.31
2023-03-11T09:06:50.814Z,17.34
2023-03-11T09:08:22.865Z,17.37
2023-03-11T09:09:55.026Z,17.30
2023-03-11T09:11:26.967Z,17.32
2023-03-11T09:12:58.609Z,17.28
2023-03-11T09:14:30.309Z,17.19
2023-03-11T09:16:02.343Z,17.14
2023-03-11T09:17:36.496Z,17.05
2023-03-11T09:19:29.779Z,17.13
2023-03-11T09:21:23.507Z,17.18
2023-03-11T09:26:14.768Z,17.33
2023-03-11T09:27:48.825Z,17.11
2023-03-11T09:29:33.504Z,17.04
2023-03-11T09:31:05.690Z,16.96
2023-03-11T09:32:37.725Z,16.83
2023-03-11T09:34:10.630Z,16.76
2023-03-11T09:35:43.118Z,16.76
2023-03-11T09:37:15.448Z,16.82
2023-03-11T09:38:47.765Z,16.97
2023-03-11T09:40:20.601Z,17.14
2023-03-11T09:41:59.351Z,17.16
2023-03-11T09:43:36.054Z,17.14
2023-03-11T09:45:20.547Z,17.33
2023-03-11T09:47:11.386Z,17.54
2023-03-11T09:48:49.572Z,17.73
2023-03-11T09:50:26.897Z,17.79
2023-03-11T09:52:02.346Z,17.71
2023-03-11T09:53:36.564Z,17.68
2023-03-11T09:55:13.335Z,17.71
2023-03-11T09:56:45.540Z,17.71
2023-03-11T09:58:19.404Z,17.78
2023-03-11T09:59:51.383Z,17.78
2023-03-11T10:01:30.222Z,17.77
2023-03-11T10:03:02.046Z,17.71
2023-03-11T10:04:36.344Z,17.66
2023-03-11T10:06:18.037Z,17.67
2023-03-11T10:07:52.320Z,17.64
2023-03-11T10:09:29.610Z,17.66
2023-03-11T10:11:21.805Z,17.64
2023-03-11T10:12:56.785Z,17.54
2023-03-11T10:14:43.113Z,17.46
2023-03-11T10:16:35.016Z,17.41
2023-03-11T10:18:30.352Z,17.39
2023-03-11T10:20:13.441Z,17.27
2023-03-11T10:21:51.211Z,17.25
2023-03-11T10:23:58.707Z,17.20
2023-03-11T10:25:48.936Z,16.85
2023-03-11T10:27:21.906Z,16.62
2023-03-11T10:28:57.448Z,16.47
2023-03-11T10:30:32.240Z,16.36
2023-03-11T10:32:07.962Z,16.15
2023-03-11T10:33:46.613Z,16.11
2023-03-11T10:35:20.800Z,16.03
2023-03-11T10:36:54.264Z,15.85
2023-03-11T10:38:49.127Z,15.73
2023-03-11T10:40:31.074Z,15.41
2023-03-11T10:42:05.927Z,15.22
2023-03-11T10:43:39.202Z,15.13
2023-03-11T10:45:14.570Z,15.10
2023-03-11T10:46:46.700Z,15.07
2023-03-11T10:48:19.300Z,15.16
2023-03-11T10:49:51.075Z,15.32
2023-03-11T10:51:24.275Z,15.55
2023-03-11T10:53:05.027Z,15.76
2023-03-11T10:54:39.852Z,15.90
2023-03-11T10:56:16.565Z,16.00
2023-03-11T10:57:48.600Z,16.14
2023-03-11T10:59:24.496Z,16.27
2023-03-11T11:01:02.894Z,16.43
2023-03-11T11:02:43.629Z,16.50
2023-03-11T11:04:24.204Z,16.52
2023-03-11T11:05:59.781Z,16.59
2023-03-11T11:07:38.462Z,16.62
2023-03-11T11:09:10.016Z,16.66
2023-03-11T11:10:55.527Z,16.75
2023-03-11T11:12:27.350Z,16.78
2023-03-11T11:13:59.510Z,16.74
2023-03-11T11:15:40.827Z,16.62
2023-03-11T11:17:27.380Z,16.48
2023-03-11T11:18:58.968Z,16.47
2023-03-11T11:20:30.767Z,16.50
2023-03-11T11:22:04.431Z,16.49
2023-03-11T11:23:43.168Z,16.52
2023-03-11T11:25:24.720Z,16.56
2023-03-11T11:27:06.405Z,16.71
2023-03-11T11:28:38.084Z,16.83
2023-03-11T11:30:09.856Z,16.98
2023-03-11T11:31:42.464Z,17.06
2023-03-11T11:33:53.150Z,17.08
2023-03-11T11:35:25.115Z,17.02
2023-03-11T11:36:57.368Z,16.94
2023-03-11T11:38:29.401Z,16.83
2023-03-11T11:40:14.775Z,16.78
2023-03-11T11:41:46.656Z,16.75
2023-03-11T11:43:19.090Z,16.72
2023-03-11T11:44:53.246Z,16.72
2023-03-11T11:46:34.001Z,16.74
2023-03-11T11:48:13.300Z,16.78
2023-03-11T11:51:07.774Z,16.84
2023-03-11T11:52:14.513Z,16.81
2023-03-11T11:53:47.066Z,16.84
2023-03-11T11:55:26.856Z,16.88
2023-03-11T11:57:02.263Z,17.09
2023-03-11T11:58:38.772Z,17.33
2023-03-11T12:00:31.606Z,17.50
2023-03-11T12:02:24.133Z,17.60
2023-03-11T12:03:55.863Z,17.64
2023-03-11T12:05:30.226Z,17.60
2023-03-11T12:07:10.915Z,17.55
2023-03-11T12:08:54.814Z,17.49
2023-03-11T12:10:32.457Z,17.40
2023-03-11T12:12:43.176Z,17.32
2023-03-11T12:14:18.589Z,17.27
2023-03-11T12:15:54.574Z,17.19
2023-03-11T12:17:26.343Z,17.05
2023-03-11T12:19:13.301Z,16.98
2023-03-11T12:20:47.151Z,16.85
2023-03-11T12:22:25.947Z,16.75
2023-03-11T12:24:16.766Z,16.52
2023-03-11T12:26:03.760Z,16.34
2023-03-11T12:27:47.258Z,16.24
2023-03-11T12:29:19.841Z,16.19
2023-03-11T12:30:54.509Z,16.18
2023-03-11T12:32:40.657Z,16.22
2023-03-11T12:34:13.259Z,16.31
2023-03-11T12:35:49.150Z,16.41
2023-03-11T12:37:21.607Z,16.44
2023-03-11T12:38:53.864Z,16.53
2023-03-11T12:40:44.504Z,16.62
2023-03-11T12:42:17.665Z,16.71
2023-03-11T12:43:52.459Z,16.72
2023-03-11T12:45:43.081Z,16.81
2023-03-11T12:47:14.832Z,16.83
2023-03-11T12:48:47.608Z,16.85
2023-03-11T12:50:39.744Z,16.87
2023-03-11T12:52:11.793Z,16.93
2023-03-11T12:53:50.026Z,16.96
2023-03-11T12:55:25.158Z,16.95
2023-03-11T12:57:00.447Z,16.95
2023-03-11T12:58:35.316Z,16.81
2023-03-11T13:00:23.942Z,16.68
2023-03-11T13:02:03.805Z,16.55
2023-03-11T13:03:44.343Z,16.41
2023-03-11T13:05:17.342Z,16.33
2023-03-11T13:07:04.155Z,16.29
2023-03-11T13:08:45.941Z,16.18
2023-03-11T13:10:17.769Z,16.12
2023-03-11T13:11:49.646Z,16.14
2023-03-11T13:13:32.486Z,16.14
2023-03-11T13:15:22.467Z,16.07
2023-03-11T13:16:54.670Z,16.10
2023-03-11T13:18:27.098Z,16.15
2023-03-11T13:19:59.023Z,16.16
2023-03-11T13:21:41.812Z,16.04
2023-03-11T13:23:13.475Z,15.90
2023-03-11T13:24:51.788Z,15.83
2023-03-11T13:26:30.797Z,15.80
2023-03-11T13:28:16.382Z,15.83
2023-03-11T13:29:48.322Z,15.84
2023-03-11T13:31:21.066Z,15.71
2023-03-11T13:33:20.423Z,15.66
2023-03-11T13:34:58.580Z,15.60
2023-03-11T13:36:34.874Z,15.59
2023-03-11T13:38:25.589Z,15.57
2023-03-11T13:40:00.611Z,15.47
2023-03-11T13:41:35.210Z,15.34
2023-03-11T13:43:15.142Z,15.21
2023-03-11T13:44:46.908Z,15.17
2023-03-11T13:46:26.526Z,15.05
2023-03-11T13:48:06.044Z,14.98
2023-03-11T13:49:41.619Z,14.92
2023-03-11T13:51:26.292Z,14.75
2023-03-11T13:52:59.458Z,14.56
2023-03-11T13:54:31.153Z,14.41
2023-03-11T13:56:03.251Z,14.32
2023-03-11T13:57:41.909Z,14.22
2023-03-11T13:59:33.181Z,14.13
2023-03-11T14:01:05.325Z,14.06
2023-03-11T14:02:37.130Z,14.02
2023-03-11T14:04:16.127Z,13.94
2023-03-11T14:05:48.958Z,13.77
2023-03-11T14:07:24.532Z,13.59
2023-03-11T14:08:56.998Z,13.47
2023-03-11T14:10:29.683Z,13.39
2023-03-11T14:12:04.589Z,13.34
2023-03-11T14:13:50.112Z,13.30
2023-03-11T14:15:28.622Z,13.24
2023-03-11T14:17:09.652Z,13.16
2023-03-11T14:18:59.176Z,13.12
2023-03-11T14:20:53.255Z,13.13
2023-03-11T14:22:25.167Z,13.12
2023-03-11T14:24:03.617Z,13.20
2023-03-11T14:25:39.988Z,13.20
2023-03-11T14:27:14.959Z,13.22
2023-03-11T14:28:56.885Z,13.25
2023-03-11T14:30:29.671Z,13.29
2023-03-11T14:32:01.988Z,13.28
2023-03-11T14:33:33.952Z,13.30
2023-03-11T14:35:18.937Z,13.30
2023-03-11T14:36:54.378Z,13.30
2023-03-11T14:38:27.383Z,13.32
2023-03-11T14:39:59.185Z,13.35
2023-03-11T14:41:31.217Z,13.32
2023-03-11T14:43:04.273Z,13.28
2023-03-11T14:44:36.876Z,13.28
2023-03-11T14:46:08.850Z,13.24
2023-03-11T14:47:41.156Z,13.20
2023-03-11T14:49:14.691Z,13.12
2023-03-11T14:50:49.575Z,13.12
2023-03-11T14:52:22.364Z,13.07
2023-03-11T14:53:58.905Z,13.07
2023-03-11T14:55:35.277Z,12.96
2023-03-11T14:57:11.639Z,12.89
2023-03-11T14:59:11.496Z,12.82
2023-03-11T15:00:46.363Z,12.82
2023-03-11T15:02:21.148Z,12.78
2023-03-11T15:03:56.920Z,12.77
2023-03-11T15:05:33.803Z,12.75
2023-03-11T15:07:06.022Z,12.69
2023-03-11T15:08:42.746Z,12.70
2023-03-11T15:10:15.009Z,12.76
2023-03-11T15:11:48.046Z,12.80
2023-03-11T15:13:19.706Z,12.81
2023-03-11T15:14:51.825Z,12.85
2023-03-11T15:16:23.503Z,12.88
2023-03-11T15:17:56.133Z,12.82
2023-03-11T15:19:27.775Z,12.80
2023-03-11T15:21:05.920Z,12.65
2023-03-11T15:22:42.776Z,12.62
2023-03-11T15:24:27.551Z,12.60
2023-03-11T15:26:02.449Z,12.49
2023-03-11T15:27:35.055Z,12.25
2023-03-11T15:29:16.020Z,12.08
2023-03-11T15:30:48.222Z,11.86
2023-03-11T15:32:31.907Z,11.70
2023-03-11T15:34:19.121Z,11.57
2023-03-11T15:35:50.907Z,11.47
2023-03-11T15:37:26.633Z,11.45
2023-03-11T15:39:11.056Z,11.47
2023-03-11T15:40:50.870Z,11.50
2023-03-11T15:42:26.180Z,11.49
2023-03-11T15:44:03.186Z,11.51
2023-03-11T15:45:34.832Z,11.55
2023-03-11T15:47:09.102Z,11.57
2023-03-11T15:48:43.315Z,11.61
2023-03-11T15:50:23.991Z,11.68
2023-03-11T15:51:59.860Z,11.76
2023-03-11T15:53:31.693Z,11.81
2023-03-11T15:55:03.773Z,11.86
2023-03-11T15:56:35.673Z,11.88
2023-03-11T15:58:08.970Z,11.94
2023-03-11T15:59:44.123Z,11.93
2023-03-11T16:01:16.903Z,11.93
2023-03-11T16:02:51.880Z,11.86
2023-03-11T16:04:27.453Z,11.81
2023-03-11T16:06:40.540Z,11.75
2023-03-11T16:08:12.516Z,11.67
2023-03-11T16:09:44.170Z,11.64
2023-03-11T16:11:16.097Z,11.65
2023-03-11T16:12:48.136Z,11.71
2023-03-11T16:14:20.236Z,11.75
2023-03-11T16:15:51.836Z,11.82
2023-03-11T16:17:24.349Z,11.87
2023-03-11T16:18:56.096Z,11.89
2023-03-11T16:20:28.964Z,11.90
2023-03-11T16:22:00.567Z,11.90
2023-03-11T16:23:44.820Z,11.89
2023-03-11T16:25:24.950Z,11.88
2023-03-11T16:27:34.787Z,11.84
2023-03-11T16:29:18.956Z,11.77
2023-03-11T16:30:54.446Z,11.71
2023-03-11T16:32:26.434Z,11.68
2023-03-11T16:33:58.416Z,11.65
2023-03-11T16:35:54.041Z,11.65
2023-03-11T16:37:26.876Z,11.65
2023-03-11T16:39:14.849Z,11.65
2023-03-11T16:40:47.440Z,11.63
2023-03-11T16:42:43.905Z,11.59
2023-03-11T16:44:15.646Z,11.51
2023-03-11T16:45:50.030Z,11.42
2023-03-11T16:47:21.797Z,11.35
2023-03-11T16:48:54.206Z,11.28
2023-03-11T16:50:27.032Z,11.25
2023-03-11T16:52:08.243Z,11.22
2023-03-11T16:53:44.808Z,11.21
2023-03-11T16:55:16.731Z,11.23
2023-03-11T16:59:31.460Z,11.26
2023-03-11T17:01:04.087Z,11.23
2023-03-11T17:02:36.476Z,11.21
2023-03-11T17:04:08.572Z,11.21
2023-03-11T17:05:40.805Z,11.14
2023-03-11T17:07:12.604Z,11.05
2023-03-11T17:08:49.472Z,11.00
2023-03-11T17:10:21.403Z,10.90
2023-03-11T17:11:53.658Z,10.84
2023-03-11T17:13:26.035Z,10.81
2023-03-11T17:14:58.045Z,10.74
2023-03-11T17:16:29.658Z,10.67
2023-03-11T17:18:02.146Z,10.62
2023-03-11T17:19:34.049Z,10.59
2023-03-11T17:21:10.944Z,10.57
2023-03-11T17:22:45.071Z,10.47
2023-03-11T17:24:17.107Z,10.39
2023-03-11T17:25:48.961Z,10.32
2023-03-11T17:27:21.368Z,10.27
2023-03-11T17:28:53.574Z,10.25
2023-03-11T17:30:36.397Z,10.15
2023-03-11T17:32:17.000Z,10.06
2023-03-11T17:33:48.846Z,10.04
2023-03-11T17:35:20.907Z,10.02
2023-03-11T17:36:52.989Z,10.00
2023-03-11T17:38:24.503Z,9.95
2023-03-11T17:39:56.228Z,9.92
2023-03-11T17:41:28.294Z,9.91
2023-03-11T17:43:00.674Z,9.92
2023-03-11T17:44:48.504Z,9.89
2023-03-11T17:46:25.433Z,9.83
2023-03-11T17:48:36.693Z,9.79
2023-03-11T17:50:09.298Z,9.68
2023-03-11T17:51:41.402Z,9.63
2023-03-11T17:53:13.624Z,9.58
2023-03-11T17:54:45.335Z,9.53
2023-03-11T17:56:17.744Z,9.51
2023-03-11T17:57:49.887Z,9.48
2023-03-11T17:59:21.870Z,9.40
2023-03-11T18:00:54.133Z,9.30
2023-03-11T18:02:26.627Z,9.23
2023-03-11T18:03:58.769Z,9.17
2023-03-11T18:05:31.093Z,9.12
2023-03-11T18:07:03.478Z,9.07
2023-03-11T18:08:35.555Z,9.05
2023-03-11T18:10:08.336Z,9.00
2023-03-11T18:11:40.565Z,8.94
2023-03-11T18:13:12.763Z,8.87
2023-03-11T18:14:44.423Z,8.83
2023-03-11T18:16:17.511Z,8.71
2023-03-11T18:17:49.308Z,8.71
2023-03-11T18:19:22.696Z,8.68
2023-03-11T18:20:54.624Z,8.67
2023-03-11T18:22:27.498Z,8.66
2023-03-11T18:23:59.900Z,8.64
2023-03-11T18:25:32.388Z,8.60
2023-03-11T18:27:04.107Z,8.54
2023-03-11T18:28:36.122Z,8.53
2023-03-11T18:30:08.815Z,8.54
2023-03-11T18:31:40.596Z,8.52
2023-03-11T18:33:12.440Z,8.49
2023-03-11T18:34:44.386Z,8.45
2023-03-11T18:36:17.010Z,8.44
2023-03-11T18:37:48.794Z,8.42
2023-03-11T18:39:20.691Z,8.43
2023-03-11T18:40:58.850Z,8.41
2023-03-11T18:42:30.388Z,8.38
2023-03-11T18:44:02.405Z,8.35
2023-03-11T18:45:34.646Z,8.30
2023-03-11T18:47:07.052Z,8.29
2023-03-11T18:48:38.784Z,8.27
2023-03-11T18:50:11.269Z,8.26
2023-03-11T18:51:43.370Z,8.25
2023-03-11T18:53:15.104Z,8.23
2023-03-11T18:54:46.729Z,8.18
2023-03-11T18:56:18.492Z,8.14
2023-03-11T18:57:50.410Z,8.10
2023-03-11T18:59:23.633Z,8.05
2023-03-11T19:00:56.111Z,8.02
2023-03-11T19:02:31.516Z,8.00
2023-03-11T19:04:03.924Z,8.00
2023-03-11T19:05:36.102Z,8.03
2023-03-11T19:07:08.845Z,8.03
2023-03-11T19:08:40.596Z,7.98
2023-03-11T19:10:12.594Z,7.91
2023-03-11T19:11:45.259Z,7.83
2023-03-11T19:13:19.487Z,7.78
2023-03-11T19:14:51.648Z,7.73
2023-03-11T19:16:24.383Z,7.71
2023-03-11T19:18:06.254Z,7.65
2023-03-11T19:19:39.272Z,7.63
2023-03-11T19:21:12.264Z,7.61
2023-03-11T19:22:43.943Z,7.62
2023-03-11T19:24:15.629Z,7.60
2023-03-11T19:26:02.518Z,7.59
2023-03-11T19:27:39.469Z,7.60
2023-03-11T19:29:15.166Z,7.60
2023-03-11T19:30:54.655Z,7.61
2023-03-11T19:32:26.710Z,7.63
2023-03-11T19:33:59.730Z,7.69
2023-03-11T19:35:31.438Z,7.70
2023-03-11T19:37:03.288Z,7.71
2023-03-11T19:38:34.798Z,7.74
2023-03-11T19:40:07.881Z,7.76
2023-03-11T19:41:41.012Z,7.76
2023-03-11T19:43:14.966Z,7.75
2023-03-11T19:44:46.835Z,7.76
2023-03-11T19:46:25.192Z,7.75
2023-03-11T19:48:04.551Z,7.76
2023-03-11T19:49:44.554Z,7.75
2023-03-11T20:04:18.129Z,7.69
2023-03-11T20:05:59.763Z,7.69
2023-03-11T20:07:36.487Z,7.69
2023-03-11T20:09:11.360Z,7.68
2023-03-11T20:10:44.355Z,7.63
2023-03-11T20:12:16.324Z,7.63
2023-03-11T20:13:48.849Z,7.65
2023-03-11T20:15:20.410Z,7.69
2023-03-11T20:16:53.135Z,7.69
2023-03-11T20:18:24.827Z,7.69
2023-03-11T20:19:56.568Z,7.70
2023-03-11T20:21:28.370Z,7.69
2023-03-11T20:23:00.284Z,7.64
2023-03-11T20:24:32.659Z,7.62
2023-03-11T20:26:05.168Z,7.60
2023-03-11T20:27:36.796Z,7.59
2023-03-11T20:29:08.565Z,7.58
2023-03-11T20:30:40.438Z,7.56
2023-03-11T20:32:12.335Z,7.54
2023-03-11T20:33:44.528Z,7.56
2023-03-11T20:35:16.822Z,7.55
2023-03-11T20:36:49.641Z,7.56
2023-03-11T20:38:21.478Z,7.52
2023-03-11T20:39:53.419Z,7.52
2023-03-11T20:41:26.301Z,7.52
2023-03-11T20:42:58.313Z,7.48
2023-03-11T20:44:30.579Z,7.46
2023-03-11T20:46:02.190Z,7.40
2023-03-11T20:47:34.434Z,7.35